createdAt,value
2022-08-03T00:03:13.356Z,71
2022-08-03T00:06:38.582Z,71
2022-08-03T00:10:03.916Z,69
2022-08-03T00:13:29.242Z,68
2022-08-03T00:16:54.579Z,69
2022-08-03T00:20:19.893Z,70
2022-08-03T00:23:51.068Z,69
2022-08-03T00:27:10.579Z,70
2022-08-03T00:30:35.889Z,71
2022-08-03T00:34:03.438Z,71
2022-08-03T00:37:40.536Z,70
2022-08-03T00:40:51.863Z,70
2022-08-03T00:44:17.253Z,71
2022-08-03T00:47:42.567Z,71
2022-08-03T00:51:07.978Z,70
2022-08-03T00:54:33.323Z,70
2022-08-03T00:57:58.658Z,71
2022-08-03T01:01:24.065Z,70
2022-08-03T01:04:49.348Z,70
2022-08-03T01:08:14.673Z,70
2022-08-03T01:12:00.427Z,71
2022-08-03T01:15:05.390Z,69
2022-08-03T01:18:30.713Z,71
2022-08-03T01:21:56.083Z,70
2022-08-03T01:25:21.440Z,71
2022-08-03T01:28:46.811Z,71
2022-08-03T01:33:00.378Z,72
2022-08-03T01:35:38.477Z,71
2022-08-03T01:39:02.849Z,71
2022-08-03T01:42:28.219Z,72
2022-08-03T01:45:53.586Z,71
2022-08-03T01:49:18.990Z,69
2022-08-03T01:52:44.273Z,69
2022-08-03T01:56:09.621Z,68
2022-08-03T01:59:35.020Z,69
2022-08-03T02:03:00.387Z,70
2022-08-03T02:06:55.643Z,70
2022-08-03T02:09:51.078Z,71
2022-08-03T02:13:16.459Z,73
2022-08-03T02:16:41.816Z,72
2022-08-03T02:20:07.155Z,72
2022-08-03T02:23:32.527Z,72
2022-08-03T02:26:57.861Z,72
2022-08-03T02:30:23.233Z,71
2022-08-03T02:33:48.586Z,71
2022-08-03T02:37:13.931Z,71
2022-08-03T02:40:39.305Z,71
2022-08-03T02:44:05.767Z,73
2022-08-03T02:47:53.162Z,72
2022-08-03T02:50:55.384Z,72
2022-08-03T02:54:20.776Z,72
2022-08-03T02:57:46.194Z,71
2022-08-03T03:01:11.701Z,72
2022-08-03T03:04:37.053Z,73
2022-08-03T03:08:03.427Z,73
2022-08-03T03:11:28.770Z,73
2022-08-03T03:14:54.233Z,73
2022-08-03T03:18:22.504Z,72
2022-08-03T03:21:45.005Z,72
2022-08-03T03:25:10.405Z,70
2022-08-03T03:28:35.774Z,71
2022-08-03T03:32:01.305Z,70
2022-08-03T03:35:26.556Z,70
2022-08-03T03:38:51.950Z,70
2022-08-03T03:42:17.517Z,70
2022-08-03T03:45:42.641Z,70
2022-08-03T03:49:08.149Z,71
2022-08-03T03:52:33.488Z,71
2022-08-03T03:56:01.239Z,71
2022-08-03T03:59:24.225Z,72
2022-08-03T04:02:49.618Z,72
2022-08-03T04:06:14.947Z,73
2022-08-03T04:09:40.369Z,73
2022-08-03T04:13:05.781Z,74
2022-08-03T04:16:31.127Z,75
2022-08-03T04:19:56.512Z,75
2022-08-03T04:23:21.887Z,76
2022-08-03T04:26:50.905Z,75
2022-08-03T04:30:12.629Z,76
2022-08-03T04:33:37.981Z,76
2022-08-03T04:37:03.345Z,76
2022-08-03T04:40:29.183Z,77
2022-08-03T04:43:54.057Z,77
2022-08-03T04:47:19.557Z,79
2022-08-03T04:50:44.930Z,78
2022-08-03T04:54:10.279Z,79
2022-08-03T04:57:35.606Z,78
2022-08-03T05:01:00.924Z,79
2022-08-03T05:04:26.241Z,78
2022-08-03T05:07:51.552Z,75
2022-08-03T05:11:16.923Z,75
2022-08-03T05:14:42.294Z,74
2022-08-03T05:18:10.693Z,74
2022-08-03T05:21:41.858Z,73
2022-08-03T05:24:58.258Z,75
2022-08-03T05:28:23.583Z,77
2022-08-03T05:31:48.943Z,76
2022-08-03T05:35:56.360Z,77
2022-08-03T05:38:39.641Z,77
2022-08-03T05:42:04.981Z,77
2022-08-03T05:45:30.269Z,75
2022-08-03T05:48:55.650Z,76
2022-08-03T05:52:20.927Z,75
2022-08-03T05:55:46.261Z,72
2022-08-03T05:59:36.842Z,71
2022-08-03T06:02:36.925Z,69
2022-08-03T06:06:02.255Z,68
2022-08-03T06:09:31.890Z,67
2022-08-03T06:12:52.935Z,64
2022-08-03T06:16:18.278Z,66
2022-08-03T06:19:43.592Z,66
2022-08-03T06:23:12.127Z,66
2022-08-03T06:26:34.258Z,61
2022-08-03T06:29:59.571Z,63
2022-08-03T06:33:24.884Z,62
2022-08-03T06:36:50.218Z,61
2022-08-03T06:40:15.517Z,64
2022-08-03T06:44:02.895Z,61
2022-08-03T06:47:06.171Z,61
2022-08-03T06:50:31.501Z,60
2022-08-03T06:53:56.839Z,61
2022-08-03T06:57:22.150Z,60
2022-08-03T07:00:47.472Z,60
2022-08-03T07:04:12.826Z,60
2022-08-03T07:07:38.141Z,61
2022-08-03T07:11:03.471Z,61
2022-08-03T07:14:28.795Z,59
2022-08-03T07:17:54.258Z,59
2022-08-03T07:21:19.611Z,59
2022-08-03T07:24:44.960Z,57
2022-08-03T07:28:10.292Z,57
2022-08-03T07:31:35.604Z,58
2022-08-03T07:35:01.659Z,57
2022-08-03T07:38:26.307Z,58
2022-08-03T07:41:51.660Z,58
2022-08-03T07:45:17.028Z,56
2022-08-03T07:48:42.379Z,56
2022-08-03T07:52:07.681Z,57
2022-08-03T07:55:33.068Z,56
2022-08-03T07:58:58.315Z,53
2022-08-03T08:02:23.664Z,51
2022-08-03T08:05:48.992Z,51
2022-08-03T08:09:14.308Z,49
2022-08-03T08:12:39.651Z,50
2022-08-03T08:16:04.992Z,49
2022-08-03T08:19:31.384Z,49
2022-08-03T08:22:56.503Z,51
2022-08-03T08:26:21.923Z,50
2022-08-03T08:29:47.739Z,50
2022-08-03T08:33:22.386Z,48
2022-08-03T08:36:37.977Z,49
2022-08-03T08:40:03.333Z,49
2022-08-03T08:43:28.655Z,48
2022-08-03T08:46:54.125Z,48
2022-08-03T08:50:27.578Z,46
2022-08-03T08:53:44.794Z,48
2022-08-03T08:57:26.698Z,46
2022-08-03T09:00:36.357Z,46
2022-08-03T09:04:01.740Z,47
2022-08-03T09:07:27.073Z,47
2022-08-03T09:10:52.450Z,46
2022-08-03T09:14:35.269Z,44
2022-08-03T09:17:45.461Z,46
2022-08-03T09:21:24.455Z,45
2022-08-03T09:24:40.981Z,45
2022-08-03T09:27:59.064Z,45
2022-08-03T09:31:24.415Z,46
2022-08-03T09:34:49.748Z,47
2022-08-03T09:38:15.094Z,45
2022-08-03T09:41:40.465Z,44
2022-08-03T09:45:05.809Z,47
2022-08-03T09:48:31.147Z,46
2022-08-03T09:52:29.006Z,43
2022-08-03T09:56:01.624Z,45
2022-08-03T09:58:47.163Z,44
2022-08-03T10:02:12.505Z,44
2022-08-03T10:05:37.874Z,44
2022-08-03T10:09:03.222Z,45
2022-08-03T10:12:28.592Z,42
2022-08-03T10:16:21.071Z,43
2022-08-03T10:19:19.250Z,41
2022-08-03T10:22:44.588Z,42
2022-08-03T10:26:09.950Z,41
2022-08-03T10:29:35.358Z,40
2022-08-03T10:33:00.711Z,40
2022-08-03T10:36:26.078Z,39
2022-08-03T10:39:51.435Z,37
2022-08-03T10:43:16.761Z,40
2022-08-03T10:46:44.882Z,40
2022-08-03T10:50:07.439Z,37
2022-08-03T10:53:32.754Z,36
2022-08-03T10:56:58.390Z,37
2022-08-03T11:00:23.515Z,39
2022-08-03T11:03:48.752Z,38
2022-08-03T11:07:14.115Z,39
2022-08-03T11:10:39.443Z,37
2022-08-03T11:14:04.784Z,38
2022-08-03T11:17:30.069Z,39
2022-08-03T11:20:55.424Z,39
2022-08-03T11:24:20.774Z,40
2022-08-03T11:27:46.107Z,39
2022-08-03T11:31:22.425Z,37
2022-08-03T11:34:36.787Z,36
2022-08-03T11:38:03.446Z,39
2022-08-03T11:41:27.483Z,40
2022-08-03T11:44:52.831Z,39
2022-08-03T11:48:18.146Z,38
2022-08-03T11:51:43.484Z,38
2022-08-03T11:55:08.808Z,36
2022-08-03T11:59:00.414Z,35
2022-08-03T12:01:59.438Z,40
2022-08-03T12:05:24.934Z,37
2022-08-03T12:08:50.316Z,37
2022-08-03T12:12:15.683Z,37
2022-08-03T12:15:41.041Z,35
2022-08-03T12:19:06.416Z,35
2022-08-03T12:22:31.732Z,36
2022-08-03T12:25:57.068Z,35
2022-08-03T12:29:22.424Z,38
2022-08-03T12:32:47.759Z,39
2022-08-03T12:36:13.107Z,39
2022-08-03T12:39:38.462Z,40
2022-08-03T12:43:03.782Z,38
2022-08-03T12:46:29.090Z,37
2022-08-03T12:49:54.424Z,38
2022-08-03T12:53:19.792Z,38
2022-08-03T12:56:45.143Z,37
2022-08-03T13:00:17.502Z,38
2022-08-03T13:03:39.857Z,36
2022-08-03T13:07:02.845Z,38
2022-08-03T13:10:27.175Z,37
2022-08-03T13:13:52.560Z,34
2022-08-03T13:17:18.256Z,36
2022-08-03T13:20:43.341Z,35
2022-08-03T13:24:08.714Z,37
2022-08-03T13:28:05.045Z,38
2022-08-03T13:30:59.435Z,36
2022-08-03T13:34:24.805Z,34
2022-08-03T13:37:50.247Z,37
2022-08-03T13:41:15.661Z,39
2022-08-03T13:44:41.185Z,37
2022-08-03T13:48:06.316Z,36
2022-08-03T13:51:31.681Z,37
2022-08-03T13:54:57.153Z,35
2022-08-03T13:58:22.988Z,34
2022-08-03T14:01:55.209Z,33
2022-08-03T14:05:15.699Z,37
2022-08-03T14:08:41.053Z,36
2022-08-03T14:12:07.849Z,36
2022-08-03T14:15:31.862Z,36
2022-08-03T14:18:57.314Z,37
2022-08-03T14:22:22.723Z,37
2022-08-03T14:25:50.575Z,39
2022-08-03T14:29:13.512Z,37
2022-08-03T15:05:05.918Z,37
2022-08-03T15:08:31.321Z,38
2022-08-03T15:11:56.714Z,38
2022-08-03T15:15:22.107Z,38
2022-08-03T15:18:47.479Z,37
2022-08-03T15:22:12.837Z,38
2022-08-03T15:26:02.520Z,39
2022-08-03T15:29:03.570Z,39
2022-08-03T15:32:29.019Z,38
2022-08-03T15:35:54.401Z,38
2022-08-03T15:39:19.834Z,38
2022-08-03T15:42:45.192Z,37
2022-08-03T15:46:28.554Z,36
2022-08-03T15:49:36.017Z,36
2022-08-03T15:53:01.580Z,36
2022-08-03T15:56:27.142Z,38
2022-08-03T15:59:52.464Z,37
2022-08-03T16:03:17.839Z,37
2022-08-03T16:06:43.239Z,37
2022-08-03T16:10:08.601Z,38
2022-08-03T16:14:04.987Z,39
2022-08-03T16:17:00.092Z,40
2022-08-03T16:20:29.145Z,39
2022-08-03T16:23:50.860Z,40
2022-08-03T16:27:17.552Z,39
2022-08-03T16:30:41.652Z,40
2022-08-03T16:34:07.031Z,40
2022-08-03T16:37:38.473Z,40
2022-08-03T16:40:58.810Z,40
2022-08-03T16:44:24.176Z,39
2022-08-03T16:48:01.409Z,39
2022-08-03T16:51:15.017Z,39
2022-08-03T16:54:40.611Z,38
2022-08-03T16:58:06.291Z,40
2022-08-03T17:01:35.803Z,38
2022-08-03T17:04:56.576Z,38
2022-08-03T17:08:26.426Z,39
2022-08-03T17:11:47.788Z,40
2022-08-03T17:15:12.822Z,41
2022-08-03T17:18:38.287Z,40
2022-08-03T17:22:04.054Z,41
2022-08-03T17:25:39.670Z,40
2022-08-03T17:28:57.591Z,41
2022-08-03T17:32:21.235Z,41
2022-08-03T17:35:45.206Z,41
2022-08-03T17:39:10.601Z,41
2022-08-03T17:42:35.951Z,42
2022-08-03T17:46:01.367Z,43
2022-08-03T17:49:26.747Z,41
2022-08-03T17:52:52.166Z,42
2022-08-03T17:56:38.669Z,42
2022-08-03T17:59:51.120Z,43
2022-08-03T18:03:10.028Z,42
2022-08-03T18:06:33.724Z,42
2022-08-03T18:10:03.096Z,43
2022-08-03T18:13:24.491Z,44
2022-08-03T18:16:49.851Z,45
2022-08-03T18:20:32.423Z,47
2022-08-03T18:23:40.634Z,47
2022-08-03T18:27:06.498Z,48
2022-08-03T18:30:31.569Z,50
2022-08-03T18:34:16.059Z,50
2022-08-03T18:37:24.927Z,46
2022-08-03T18:40:48.541Z,48
2022-08-03T18:44:37.894Z,50
2022-08-03T18:47:43.554Z,48
2022-08-03T18:51:03.977Z,50
2022-08-03T18:54:46.366Z,51
2022-08-03T18:57:54.741Z,51
2022-08-03T19:01:58.825Z,49
2022-08-03T19:04:45.530Z,49
2022-08-03T19:08:13.661Z,51
2022-08-03T19:12:11.369Z,51
2022-08-03T19:15:03.003Z,52
2022-08-03T19:18:27.115Z,51
2022-08-03T19:21:52.498Z,51
2022-08-03T19:25:17.905Z,48
2022-08-03T19:28:43.321Z,52
2022-08-03T19:32:08.720Z,51
2022-08-03T19:35:52.321Z,51
2022-08-03T19:38:59.466Z,52
2022-08-03T19:42:25.053Z,50
2022-08-03T19:45:52.612Z,50
2022-08-03T19:49:16.073Z,50
2022-08-03T19:52:40.832Z,48
2022-08-03T19:56:06.143Z,49
2022-08-03T19:59:31.469Z,50
2022-08-03T20:02:56.799Z,51
2022-08-03T20:06:22.113Z,48
2022-08-03T20:09:47.435Z,49
2022-08-03T20:13:12.755Z,49
2022-08-03T20:16:38.123Z,52
2022-08-03T20:20:03.546Z,52
2022-08-03T20:23:37.116Z,50
2022-08-03T20:26:54.216Z,49
2022-08-03T20:30:19.546Z,49
2022-08-03T20:33:46.018Z,49
2022-08-03T20:37:12.031Z,49
2022-08-03T20:40:35.519Z,50
2022-08-03T20:44:00.844Z,50
2022-08-03T20:47:26.148Z,50
2022-08-03T20:50:51.467Z,49
2022-08-03T20:54:23.263Z,51
2022-08-03T20:57:42.120Z,50
2022-08-03T21:01:07.489Z,49
2022-08-03T21:04:33.271Z,50
2022-08-03T21:08:04.581Z,54
2022-08-03T21:11:24.864Z,57
2022-08-03T21:14:52.133Z,59
2022-08-03T21:18:16.396Z,57
2022-08-03T21:21:42.187Z,57
2022-08-03T21:25:07.955Z,57
2022-08-03T21:28:33.739Z,52
2022-08-03T21:31:59.566Z,57
2022-08-03T21:35:25.335Z,60
2022-08-03T21:38:55.762Z,54
2022-08-03T21:42:16.865Z,57
2022-08-03T21:45:42.647Z,57
2022-08-03T21:49:51.696Z,59
2022-08-03T21:52:34.177Z,57
2022-08-03T21:55:59.968Z,59
2022-08-03T21:59:25.761Z,58
2022-08-03T22:02:53.113Z,59
2022-08-03T22:06:20.033Z,60
2022-08-03T22:09:50.087Z,62
2022-08-03T22:13:08.868Z,58
2022-08-03T22:16:34.337Z,59
2022-08-03T22:19:59.625Z,61
2022-08-03T22:23:24.953Z,60
2022-08-03T22:26:50.242Z,61
2022-08-03T22:30:15.554Z,61
2022-08-03T22:33:40.864Z,63
2022-08-03T22:37:06.206Z,61
2022-08-03T22:40:31.479Z,60
2022-08-03T22:43:56.810Z,60
2022-08-03T22:47:22.615Z,62
2022-08-03T22:50:47.414Z,62
2022-08-03T22:54:12.734Z,63
2022-08-03T22:57:38.039Z,61
2022-08-03T23:01:03.350Z,63
2022-08-03T23:04:28.665Z,61
2022-08-03T23:07:53.974Z,60
2022-08-03T23:11:19.298Z,61
2022-08-03T23:14:44.629Z,60
2022-08-03T23:18:09.945Z,59
2022-08-03T23:21:35.259Z,62
2022-08-03T23:25:00.569Z,60
2022-08-03T23:28:25.887Z,61
2022-08-03T23:31:51.200Z,61
2022-08-03T23:35:16.499Z,62
2022-08-03T23:38:41.824Z,60
2022-08-03T23:42:07.109Z,61
2022-08-03T23:45:32.406Z,60
2022-08-03T23:48:57.751Z,61
2022-08-03T23:52:23.048Z,60
2022-08-03T23:55:48.351Z,61
2022-08-03T23:59:13.676Z,61
